Aviation Digital Data Service (ADDS)

Output produced by METARs form (2202 UTC 24 March 2019)
found at http://www.aviationweather.gov/metar/data/
 
GGOV 242100Z 26006KT CAVOK 25/20 Q1010 NOSIG
TAF GGOV 241700Z 2418/2518 30008KT CAVOK